| Date | Temp | Humidity | Rainfall | Dew Point | Wind Direction | Wind Speed | Wind Pressure | Condition | Visibility |
|---|---|---|---|---|---|---|---|---|---|
| 2025-04-27 20:59:51 | 26 | 88 | 0 | 24 | 090 | 1.9 | 1010 | Thundershowers | 10 KM |
| 2025-04-27 19:59:06 | 27 | 90 | 0 | 25 | 130 | 5.7 | 1009 | Night Thunderstorm | 10 KM |
| 2025-04-27 18:58:34 | 27 | 89 | 0 | 25 | 140 | 5.7 | 1009 | Cloudy | 10 KM |
| 2025-04-27 17:57:56 | 28 | 85 | 0 | 25 | 130 | 7.6 | 1008 | Cloudy | 20 KM |
| 2025-04-27 16:59:52 | 29 | 77 | 25 | 290 | 7.6 | 1008 | Distant showers | 10KM | |
| 2025-04-27 16:01:00 | 30 | 70 | 24 | 270 | 7.6 | 1007 | Distant showers | 10KM | |
| 2025-04-27 15:02:11 | 29 | 66 | 23 | 210 | 7.6 | 1007 | Distant showers | 10KM | |
| 2025-04-27 14:03:13 | 26 | 91 | 24 | 220 | 28.5 | 1010 | Thundershowers | 9KM | |
| 2025-04-27 13:00:47 | 27 | 95 | 0.01 | 27 | 240 | 5.7 | 1010 | Thundershowers | 06 km |
| 2025-04-27 12:03:30 | 28 | 91 | 0.01 | 26 | 330 | 5.7 | 1011 | Thundershowers | 06 Km |
| 2025-04-27 11:04:13 | 30 | 77 | 0.01 | 25 | 270 | 11.4 | 1011 | Thundershowers | 10 km |
| 2025-04-27 10:04:08 | 31 | 76 | 0.00 | 26 | 280 | 9.5 | 1011 | Partly Cloudy (Day) | 15 km |
| 2025-04-27 09:05:50 | 29 | 81 | 0.00 | 25 | 200 | 11.4 | 1012 | Partly Cloudy (Day) | 15 km |
| 2025-04-27 08:00:13 | 28 | 86 | 0.0 | 25 | 250 | 9.5 | 1011 | Partly Cloudy (Day) | 15 KM |
| 2025-04-27 06:57:28 | 27 | 92 | 0.0 | 25 | 210 | 7.6 | 1010 | Partly Cloudy (Day) | 10 KM |
| 2025-04-27 06:00:02 | 26 | 94 | 0.0 | 25 | 180 | 1.9 | 1009 | Partly Cloudy (Day) | 10 KM |
| 2025-04-27 05:00:50 | 27 | 93 | 0.0 | 25 | 240 | 3.8 | 1009 | Partly Cloudy (Night) | 10 KM |
| 2025-04-27 04:00:19 | 26 | 89 | 0.0 | 26 | 220 | 3.8 | 1005 | Lightning | 10 KM |
| 2025-04-27 03:00:43 | 26 | 91 | 0.0 | 25 | 110 | 5.7 | 1009 | Partly Cloudy (Night) | 10 KM |
| 2025-04-27 02:01:04 | 27 | 86 | 25 | 330 | 5.7 | 1009 | Night Thunderstorm | 10 KM | |
| 2025-04-27 01:00:35 | 28 | 85 | 25 | 340 | 7.6 | 1010 | Night Thunderstorm | 10 KM | |
| 2025-04-26 23:58:45 | 29 | 82 | 25 | 050 | 5.7 | 1010 | Partly Cloudy (Night) | 10 KM | |
| 2025-04-26 22:59:32 | 29 | 77 | 25 | 040 | 5.7 | 1011 | Partly Cloudy (Night) | 10 KM | |
| 2025-04-26 21:57:17 | 29 | 75 | 25 | 020 | 7.6 | 1010 | Partly Cloudy (Night) | 10 KM | |
| 2025-04-26 21:01:17 | 30 | 76 | 0.00 | 25 | 040 | 11.4 | 1010 | Partly Cloudy (Night) | 10 km |